createdAt,value
2022-11-12T00:01:07.253Z,14.60
2022-11-12T00:03:34.616Z,14.60
2022-11-12T00:06:01.672Z,14.50
2022-11-12T00:08:29.279Z,14.50
2022-11-12T00:10:56.601Z,14.60
2022-11-12T00:13:23.575Z,14.70
2022-11-12T00:15:50.625Z,14.50
2022-11-12T00:18:17.609Z,14.50
2022-11-12T00:20:45.133Z,14.60
2022-11-12T00:23:12.352Z,14.50
2022-11-12T00:25:39.448Z,14.50
2022-11-12T00:28:09.657Z,14.40
2022-11-12T00:30:40.656Z,14.50
2022-11-12T00:33:08.446Z,14.60
2022-11-12T00:35:35.618Z,14.70
2022-11-12T00:38:03.088Z,14.80
2022-11-12T00:40:30.246Z,14.80
2022-11-12T00:42:57.431Z,14.70
2022-11-12T00:45:24.921Z,14.90
2022-11-12T00:47:56.625Z,14.90
2022-11-12T00:50:24.245Z,15.00
2022-11-12T00:52:53.140Z,15.00
2022-11-12T00:55:20.170Z,15.00
2022-11-12T00:57:47.153Z,15.00
2022-11-12T01:00:19.256Z,15.00
2022-11-12T01:02:51.066Z,15.00
2022-11-12T01:05:19.726Z,15.10
2022-11-12T01:07:51.640Z,15.10
2022-11-12T01:10:21.844Z,15.00
2022-11-12T01:12:49.005Z,15.10
2022-11-12T01:15:16.097Z,15.10
2022-11-12T01:17:43.069Z,15.10
2022-11-12T01:20:10.348Z,15.10
2022-11-12T01:22:37.461Z,15.20
2022-11-12T01:25:04.791Z,15.10
2022-11-12T01:27:31.958Z,15.10
2022-11-12T01:29:59.713Z,15.00
2022-11-12T01:32:27.949Z,15.00
2022-11-12T01:34:55.064Z,15.00
2022-11-12T01:37:22.281Z,15.10
2022-11-12T01:39:49.259Z,15.00
2022-11-12T01:42:16.321Z,15.00
2022-11-12T01:44:46.428Z,14.90
2022-11-12T01:47:15.097Z,14.80
2022-11-12T01:49:50.300Z,14.90
2022-11-12T01:52:35.154Z,14.80
2022-11-12T01:55:07.848Z,14.90
2022-11-12T01:57:41.608Z,14.90
2022-11-12T02:00:12.387Z,14.80
2022-11-12T02:02:40.533Z,14.80
2022-11-12T02:05:10.915Z,14.90
2022-11-12T02:07:40.480Z,14.90
2022-11-12T02:10:09.689Z,14.90
2022-11-12T02:12:55.781Z,14.90
2022-11-12T02:15:22.869Z,14.90
2022-11-12T02:17:50.331Z,14.90
2022-11-12T02:20:17.630Z,15.00
2022-11-12T02:22:44.840Z,15.00
2022-11-12T02:25:16.912Z,15.00
2022-11-12T02:27:45.470Z,15.00
2022-11-12T02:30:12.814Z,15.00
2022-11-12T02:32:40.085Z,15.10
2022-11-12T02:35:07.555Z,15.00
2022-11-12T02:37:34.521Z,15.10
2022-11-12T02:40:01.522Z,15.10
2022-11-12T02:42:28.527Z,15.10
2022-11-12T02:44:55.540Z,15.00
2022-11-12T02:47:22.520Z,15.10
2022-11-12T02:49:49.633Z,15.20
2022-11-12T02:52:16.609Z,15.20
2022-11-12T02:54:44.160Z,15.30
2022-11-12T02:57:11.214Z,15.30
2022-11-12T02:59:38.176Z,15.40
2022-11-12T03:02:05.347Z,15.50
2022-11-12T03:04:32.377Z,15.40
2022-11-12T03:06:59.361Z,15.20
2022-11-12T03:09:27.593Z,15.20
2022-11-12T03:11:54.586Z,15.20
2022-11-12T03:14:22.008Z,15.10
2022-11-12T03:16:49.187Z,15.10
2022-11-12T03:19:16.519Z,15.00
2022-11-12T03:21:43.490Z,14.90
2022-11-12T03:24:10.446Z,15.00
2022-11-12T03:26:37.419Z,15.10
2022-11-12T03:29:04.444Z,15.20
2022-11-12T03:31:31.590Z,15.20
2022-11-12T03:33:58.602Z,15.30
2022-11-12T03:36:25.636Z,15.30
2022-11-12T03:38:52.580Z,15.30
2022-11-12T03:41:19.676Z,15.30
2022-11-12T03:43:47.275Z,15.30
2022-11-12T03:46:14.269Z,15.20
2022-11-12T03:48:42.517Z,15.30
2022-11-12T03:51:10.090Z,15.20
2022-11-12T03:53:37.026Z,15.20
2022-11-12T03:56:04.165Z,15.20
2022-11-12T03:58:31.143Z,15.10
2022-11-12T04:00:58.161Z,15.00
2022-11-12T04:03:25.189Z,14.90
2022-11-12T04:06:10.777Z,14.90
2022-11-12T04:08:37.985Z,14.90
2022-11-12T04:11:14.741Z,14.80
2022-11-12T04:13:45.685Z,14.70
2022-11-12T04:16:37.993Z,14.50
2022-11-12T04:19:24.854Z,14.50
2022-11-12T04:22:10.813Z,14.40
2022-11-12T04:25:01.284Z,14.30
2022-11-12T04:27:31.264Z,14.30
2022-11-12T04:30:16.831Z,14.20
2022-11-12T04:32:54.835Z,14.20
2022-11-12T04:35:23.692Z,14.10
2022-11-12T04:37:51.415Z,14.00
2022-11-12T04:40:42.810Z,14.00
2022-11-12T04:43:33.414Z,13.90
2022-11-12T04:46:01.940Z,13.80
2022-11-12T04:48:29.957Z,13.70
2022-11-12T04:51:02.864Z,13.60
2022-11-12T04:53:31.214Z,13.60
2022-11-12T04:55:59.136Z,13.60
2022-11-12T04:58:26.627Z,13.50
2022-11-12T05:00:53.907Z,13.50
2022-11-12T05:03:20.982Z,13.40
2022-11-12T05:05:48.178Z,13.40
2022-11-12T05:08:15.137Z,13.40
2022-11-12T05:10:42.295Z,13.30
2022-11-12T05:13:09.437Z,13.30
2022-11-12T05:15:36.450Z,13.20
2022-11-12T05:18:03.554Z,13.20
2022-11-12T05:20:30.820Z,13.20
2022-11-12T05:23:07.060Z,13.10
2022-11-12T05:25:35.980Z,13.10
2022-11-12T05:28:03.284Z,12.90
2022-11-12T05:30:30.281Z,12.90
2022-11-12T05:32:57.250Z,12.90
2022-11-12T05:35:24.406Z,12.90
2022-11-12T05:37:51.362Z,12.80
2022-11-12T05:40:18.415Z,12.70
2022-11-12T05:42:45.535Z,12.70
2022-11-12T05:45:12.681Z,12.60
2022-11-12T05:47:39.646Z,12.50
2022-11-12T05:50:07.203Z,12.50
2022-11-12T05:52:34.163Z,12.40
2022-11-12T05:55:01.099Z,12.30
2022-11-12T05:57:28.300Z,12.30
2022-11-12T05:59:55.228Z,12.30
2022-11-12T06:02:22.443Z,12.20
2022-11-12T06:04:49.516Z,12.20
2022-11-12T06:07:16.515Z,12.20
2022-11-12T06:09:43.506Z,12.10
2022-11-12T06:12:10.677Z,12.00
2022-11-12T06:14:37.844Z,12.10
2022-11-12T06:17:04.853Z,12.10
2022-11-12T06:19:32.041Z,11.90
2022-11-12T06:21:58.990Z,12.00
2022-11-12T06:24:30.696Z,12.00
2022-11-12T06:27:00.813Z,12.00
2022-11-12T06:29:28.089Z,12.00
2022-11-12T06:31:55.066Z,12.00
2022-11-12T06:34:22.131Z,12.10
2022-11-12T06:36:49.332Z,12.10
2022-11-12T06:39:16.273Z,12.20
2022-11-12T06:41:43.462Z,12.10
2022-11-12T06:44:10.706Z,12.10
2022-11-12T06:46:37.643Z,12.10
2022-11-12T06:49:04.663Z,12.10
2022-11-12T06:51:31.714Z,12.10
2022-11-12T06:53:59.074Z,12.10
2022-11-12T06:56:26.116Z,12.20
2022-11-12T06:58:53.465Z,12.30
2022-11-12T07:01:20.495Z,12.30
2022-11-12T07:03:51.968Z,12.30
2022-11-12T07:06:20.631Z,12.60
2022-11-12T07:08:49.253Z,13.00
2022-11-12T07:11:17.664Z,13.20
2022-11-12T07:13:45.117Z,13.40
2022-11-12T07:16:12.600Z,13.60
2022-11-12T07:18:40.118Z,13.80
2022-11-12T07:21:11.502Z,13.90
2022-11-12T07:23:38.909Z,14.00
2022-11-12T07:26:08.368Z,14.20
2022-11-12T07:28:35.478Z,14.30
2022-11-12T07:31:05.079Z,14.40
2022-11-12T07:33:33.516Z,14.60
2022-11-12T07:36:06.153Z,14.60
2022-11-12T07:38:38.900Z,14.70
2022-11-12T07:41:18.198Z,15.10
2022-11-12T07:43:46.909Z,14.90
2022-11-12T07:46:18.314Z,15.00
2022-11-12T07:48:46.651Z,15.10
2022-11-12T07:51:25.596Z,15.30
2022-11-12T07:53:58.893Z,15.50
2022-11-12T07:56:28.191Z,15.50
2022-11-12T07:58:55.275Z,15.50
2022-11-12T08:01:39.469Z,15.60
2022-11-12T08:04:09.363Z,15.60
2022-11-12T08:06:37.183Z,15.90
2022-11-12T08:09:06.990Z,16.20
2022-11-12T08:11:34.666Z,16.20
2022-11-12T08:14:02.316Z,16.60
2022-11-12T08:16:29.885Z,16.10
2022-11-12T08:18:56.913Z,16.10
2022-11-12T08:21:24.226Z,16.00
2022-11-12T08:23:51.410Z,16.10
2022-11-12T08:26:20.548Z,16.40
2022-11-12T08:28:47.557Z,16.50
2022-11-12T08:31:17.403Z,16.20
2022-11-12T08:33:45.315Z,16.20
2022-11-12T08:36:14.785Z,16.40
2022-11-12T08:38:41.976Z,16.60
2022-11-12T08:41:11.498Z,16.50
2022-11-12T08:43:40.664Z,16.30
2022-11-12T08:46:07.790Z,16.30
2022-11-12T08:48:36.003Z,16.70
2022-11-12T08:51:04.738Z,17.00
2022-11-12T08:53:32.290Z,17.30
2022-11-12T08:56:00.121Z,16.80
2022-11-12T08:58:27.702Z,16.90
2022-11-12T09:00:55.633Z,17.00
2022-11-12T09:03:25.129Z,17.10
2022-11-12T09:05:53.057Z,18.10
2022-11-12T09:08:22.831Z,18.60
2022-11-12T09:10:50.889Z,18.40
2022-11-12T09:13:18.658Z,18.50
2022-11-12T09:15:46.625Z,18.60
2022-11-12T09:18:16.230Z,18.60
2022-11-12T09:20:43.444Z,18.60
2022-11-12T09:23:13.340Z,18.40
2022-11-12T09:25:41.366Z,18.50
2022-11-12T09:28:16.671Z,18.10
2022-11-12T09:30:46.676Z,18.10
2022-11-12T09:33:19.185Z,17.90
2022-11-12T09:35:47.295Z,17.60
2022-11-12T09:38:15.406Z,17.20
2022-11-12T09:40:45.154Z,16.70
2022-11-12T09:43:34.713Z,16.80
2022-11-12T09:46:28.333Z,17.00
2022-11-12T09:49:18.593Z,17.60
2022-11-12T09:52:00.561Z,17.80
2022-11-12T09:54:32.670Z,18.70
2022-11-12T09:56:59.939Z,18.90
2022-11-12T09:59:37.729Z,18.00
2022-11-12T10:02:23.608Z,18.00
2022-11-12T10:04:59.058Z,18.30
2022-11-12T10:07:36.958Z,18.60
2022-11-12T10:10:18.337Z,18.30
2022-11-12T10:13:13.182Z,18.70
2022-11-12T10:16:16.089Z,18.00
2022-11-12T10:19:12.384Z,18.20
2022-11-12T10:21:51.050Z,18.40
2022-11-12T10:24:21.846Z,18.30
2022-11-12T10:26:49.307Z,19.00
2022-11-12T10:29:16.202Z,18.90
2022-11-12T10:31:43.269Z,19.10
2022-11-12T10:34:23.198Z,18.60
2022-11-12T10:37:04.633Z,18.50
2022-11-12T10:39:44.169Z,18.30
2022-11-12T10:42:20.260Z,18.60
2022-11-12T10:44:48.069Z,18.50
2022-11-12T10:47:33.180Z,18.50
2022-11-12T10:50:09.188Z,18.10
2022-11-12T10:52:37.058Z,18.50
2022-11-12T10:55:15.057Z,18.50
2022-11-12T10:57:42.313Z,18.50
2022-11-12T11:00:18.939Z,18.60
2022-11-12T11:02:55.930Z,18.70
2022-11-12T11:05:39.383Z,19.50
2022-11-12T11:08:06.613Z,19.70
2022-11-12T11:10:36.587Z,19.70
2022-11-12T11:13:22.426Z,19.60
2022-11-12T11:16:01.464Z,19.70
2022-11-12T11:18:31.090Z,19.60
2022-11-12T11:21:16.281Z,19.40
2022-11-12T11:24:20.788Z,19.60
2022-11-12T11:26:59.984Z,18.80
2022-11-12T11:29:41.955Z,18.50
2022-11-12T11:32:41.289Z,18.70
2022-11-12T11:35:40.550Z,18.70
2022-11-12T11:38:24.065Z,18.70
2022-11-12T11:41:11.047Z,19.60
2022-11-12T11:43:47.155Z,19.70
2022-11-12T11:46:29.096Z,19.50
2022-11-12T11:49:11.085Z,19.30
2022-11-12T11:51:49.893Z,19.10
2022-11-12T11:54:32.270Z,19.50
2022-11-12T11:57:03.899Z,19.60
2022-11-12T11:59:51.815Z,20.20
2022-11-12T12:03:00.875Z,20.20
2022-11-12T12:05:42.438Z,20.00
2022-11-12T12:08:16.740Z,19.30
2022-11-12T12:11:07.629Z,19.40
2022-11-12T12:13:56.325Z,19.60
2022-11-12T12:16:54.130Z,19.30
2022-11-12T12:19:24.250Z,19.40
2022-11-12T12:21:52.600Z,19.80
2022-11-12T12:24:35.598Z,18.90
2022-11-12T12:27:26.103Z,19.20
2022-11-12T12:30:25.919Z,19.40
2022-11-12T12:33:01.377Z,19.40
2022-11-12T12:35:35.367Z,19.40
2022-11-12T12:38:13.258Z,19.10
2022-11-12T12:40:53.411Z,19.60
2022-11-12T12:43:49.033Z,19.20
2022-11-12T12:46:20.598Z,19.40
2022-11-12T12:48:48.361Z,18.90
2022-11-12T12:51:15.541Z,18.30
2022-11-12T12:53:42.632Z,18.50
2022-11-12T12:56:15.482Z,18.00
2022-11-12T12:58:48.460Z,18.00
2022-11-12T13:01:21.459Z,17.20
2022-11-12T13:04:03.307Z,16.90
2022-11-12T13:06:52.984Z,16.70
2022-11-12T13:09:19.955Z,17.20
2022-11-12T13:12:06.879Z,17.20
2022-11-12T13:14:37.014Z,17.10
2022-11-12T13:17:07.095Z,16.60
2022-11-12T13:19:35.550Z,16.50
2022-11-12T13:22:17.616Z,16.50
2022-11-12T13:25:06.346Z,16.30
2022-11-12T13:27:45.576Z,15.70
2022-11-12T13:30:18.192Z,14.90
2022-11-12T13:32:48.140Z,14.30
2022-11-12T13:35:21.899Z,13.90
2022-11-12T13:38:02.743Z,13.80
2022-11-12T13:40:46.320Z,13.70
2022-11-12T13:43:34.131Z,13.90
2022-11-12T13:46:26.398Z,14.10
2022-11-12T13:49:09.288Z,14.10
2022-11-12T13:51:52.326Z,13.90
2022-11-12T13:54:32.121Z,13.30
2022-11-12T13:57:20.802Z,13.00
2022-11-12T13:59:48.048Z,12.70
2022-11-12T14:02:26.878Z,12.50
2022-11-12T14:04:54.585Z,12.40
2022-11-12T14:07:27.411Z,12.30
2022-11-12T14:09:57.164Z,12.20
2022-11-12T14:12:45.497Z,12.10
2022-11-12T14:15:30.824Z,12.00
2022-11-12T14:18:01.224Z,11.90
2022-11-12T14:20:39.943Z,11.90
2022-11-12T14:23:24.401Z,11.80
2022-11-12T14:25:57.282Z,11.80
2022-11-12T14:28:32.907Z,11.70
2022-11-12T14:31:02.073Z,11.70
2022-11-12T14:33:31.051Z,11.60
2022-11-12T14:36:15.056Z,11.60
2022-11-12T14:38:55.449Z,11.50
2022-11-12T14:41:26.012Z,11.40
2022-11-12T14:44:12.147Z,11.30
2022-11-12T14:46:47.676Z,11.30
2022-11-12T14:49:44.283Z,11.20
2022-11-12T14:52:22.863Z,11.20
2022-11-12T14:54:59.185Z,11.10
2022-11-12T14:57:31.808Z,11.10
2022-11-12T14:59:58.890Z,11.00
2022-11-12T15:02:47.200Z,10.90
2022-11-12T15:05:19.641Z,10.80
2022-11-12T15:08:01.964Z,10.90
2022-11-12T15:10:39.710Z,10.90
2022-11-12T15:13:18.882Z,10.80
2022-11-12T15:15:56.050Z,10.80
2022-11-12T15:18:30.602Z,10.80
2022-11-12T15:21:12.802Z,10.80
2022-11-12T15:23:51.361Z,10.70
2022-11-12T15:26:46.243Z,10.80
2022-11-12T15:29:34.917Z,10.70
2022-11-12T15:32:13.685Z,10.80
2022-11-12T15:34:41.076Z,10.80
2022-11-12T15:37:31.592Z,10.70
2022-11-12T15:39:59.968Z,10.60
2022-11-12T15:42:32.552Z,10.60
2022-11-12T15:45:10.853Z,10.60
2022-11-12T15:47:37.833Z,10.40
2022-11-12T15:50:18.824Z,10.30
2022-11-12T15:52:46.008Z,10.40
2022-11-12T15:55:13.523Z,10.30
2022-11-12T15:57:50.793Z,10.30
2022-11-12T16:00:25.765Z,10.40
2022-11-12T16:02:59.386Z,10.40
2022-11-12T16:05:26.519Z,10.50
2022-11-12T16:07:53.464Z,10.40
2022-11-12T16:10:20.468Z,10.40
2022-11-12T16:12:48.313Z,10.40
2022-11-12T16:15:18.469Z,10.40
2022-11-12T16:17:46.340Z,10.50
2022-11-12T16:20:18.519Z,10.50
2022-11-12T16:22:45.513Z,10.50
2022-11-12T16:25:12.601Z,10.40
2022-11-12T16:27:40.303Z,10.40
2022-11-12T16:30:18.725Z,10.50
2022-11-12T16:32:47.900Z,10.50
2022-11-12T16:35:16.435Z,10.50
2022-11-12T16:37:44.962Z,10.40
2022-11-12T16:40:21.154Z,10.60
2022-11-12T16:42:48.181Z,10.50
2022-11-12T16:45:23.898Z,10.60
2022-11-12T16:47:56.481Z,10.50
2022-11-12T16:50:26.174Z,10.50
2022-11-12T16:52:53.691Z,10.40
2022-11-12T16:55:21.669Z,10.40
2022-11-12T16:57:48.705Z,10.40
2022-11-12T17:00:18.117Z,10.40
2022-11-12T17:02:48.322Z,10.30
2022-11-12T17:05:21.247Z,10.30
2022-11-12T17:07:49.315Z,10.20
2022-11-12T17:10:17.006Z,10.30
2022-11-12T17:12:48.123Z,10.40
2022-11-12T17:15:15.142Z,10.40
2022-11-12T17:17:42.282Z,10.40
2022-11-12T17:20:10.147Z,10.40
2022-11-12T17:22:37.403Z,10.40
2022-11-12T17:25:05.714Z,10.50
2022-11-12T17:27:32.950Z,10.50
2022-11-12T17:29:59.892Z,10.60
2022-11-12T17:32:26.890Z,10.50
2022-11-12T17:34:53.838Z,10.50
2022-11-12T17:37:20.893Z,10.50
2022-11-12T17:39:48.224Z,10.40
2022-11-12T17:42:15.166Z,10.30
2022-11-12T17:44:42.355Z,10.30
2022-11-12T17:47:09.290Z,10.30
2022-11-12T17:49:36.263Z,10.40
2022-11-12T17:52:03.355Z,10.50
2022-11-12T17:54:30.274Z,10.50
2022-11-12T17:56:57.235Z,10.40
2022-11-12T17:59:24.591Z,10.40
2022-11-12T18:01:51.598Z,10.50
2022-11-12T18:04:18.515Z,10.60
2022-11-12T18:06:45.660Z,10.50
2022-11-12T18:09:15.395Z,10.50
2022-11-12T18:11:51.209Z,10.60
2022-11-12T18:14:18.189Z,10.60
2022-11-12T18:16:46.330Z,10.60
2022-11-12T18:19:13.381Z,10.60
2022-11-12T18:21:40.755Z,10.50
2022-11-12T18:24:14.086Z,10.50
2022-11-12T18:26:41.590Z,10.50
2022-11-12T18:29:08.594Z,10.40
2022-11-12T18:31:35.747Z,10.40
2022-11-12T18:34:02.765Z,10.40
2022-11-12T18:36:29.715Z,10.40
2022-11-12T18:38:56.723Z,10.40
2022-11-12T18:41:26.848Z,10.40
2022-11-12T18:43:55.187Z,10.30
2022-11-12T18:46:23.212Z,10.20
2022-11-12T18:48:50.762Z,10.20
2022-11-12T18:51:19.160Z,10.20
2022-11-12T18:53:46.686Z,10.20
2022-11-12T18:56:16.282Z,10.30
2022-11-12T18:58:43.616Z,10.30
2022-11-12T19:01:28.748Z,10.30
2022-11-12T19:03:56.930Z,10.30
2022-11-12T19:06:24.813Z,10.20
2022-11-12T19:08:52.269Z,10.20
2022-11-12T19:11:21.815Z,10.30
2022-11-12T19:13:53.515Z,10.30
2022-11-12T19:16:22.866Z,10.20
2022-11-12T19:18:51.367Z,10.20
2022-11-12T19:21:23.615Z,10.20
2022-11-12T19:23:54.298Z,10.20
2022-11-12T19:26:23.541Z,10.10
2022-11-12T19:28:50.757Z,10.10
2022-11-12T19:31:20.201Z,10.00
2022-11-12T19:33:47.428Z,9.90
2022-11-12T19:36:18.806Z,9.80
2022-11-12T19:38:45.755Z,9.70
2022-11-12T19:41:19.833Z,9.60
2022-11-12T19:43:47.560Z,9.50
2022-11-12T19:46:15.054Z,9.50
2022-11-12T19:48:42.631Z,9.40
2022-11-12T19:51:11.631Z,9.40
2022-11-12T19:53:44.711Z,9.50
2022-11-12T19:56:14.222Z,9.50
2022-11-12T19:58:46.610Z,9.50
2022-11-12T20:01:16.353Z,9.50
2022-11-12T20:03:43.874Z,9.40
2022-11-12T20:06:14.277Z,9.40
2022-11-12T20:08:41.967Z,9.40
2022-11-12T20:11:10.045Z,9.40
2022-11-12T20:13:37.291Z,9.50
2022-11-12T20:16:09.421Z,9.30
2022-11-12T20:18:36.396Z,9.20
2022-11-12T20:21:06.323Z,9.20
2022-11-12T20:23:36.169Z,9.00
2022-11-12T20:26:09.825Z,9.10
2022-11-12T20:28:38.919Z,9.00
2022-11-12T20:31:14.659Z,8.90
2022-11-12T20:33:42.795Z,8.80
2022-11-12T20:36:20.324Z,8.70
2022-11-12T20:38:49.974Z,8.60
2022-11-12T20:41:20.126Z,8.60
2022-11-12T20:43:47.678Z,8.60
2022-11-12T20:46:14.982Z,8.80
2022-11-12T20:48:43.420Z,8.80
2022-11-12T20:51:25.220Z,8.90
2022-11-12T20:54:00.062Z,8.80
2022-11-12T20:56:29.551Z,8.80
2022-11-12T20:58:57.474Z,8.80
2022-11-12T21:01:25.779Z,8.70
2022-11-12T21:03:54.121Z,8.60
2022-11-12T21:06:23.746Z,8.60
2022-11-12T21:08:51.238Z,8.80
2022-11-12T21:11:21.370Z,8.80
2022-11-12T21:13:49.634Z,8.70
2022-11-12T21:16:16.898Z,8.70
2022-11-12T21:18:44.249Z,8.60
2022-11-12T21:21:17.285Z,8.60
2022-11-12T21:23:44.940Z,8.50
2022-11-12T21:26:20.349Z,8.40
2022-11-12T21:28:52.926Z,8.40
2022-11-12T21:31:30.422Z,8.40
2022-11-12T21:34:04.322Z,8.40
2022-11-12T21:36:32.658Z,8.40
2022-11-12T21:38:59.801Z,8.50
2022-11-12T21:41:28.405Z,8.50
2022-11-12T21:43:55.491Z,8.50
2022-11-12T21:46:31.064Z,8.40
2022-11-12T21:48:58.057Z,8.50
2022-11-12T21:51:27.485Z,8.50
2022-11-12T21:54:03.317Z,8.50
2022-11-12T21:56:30.774Z,8.40
2022-11-12T21:59:00.516Z,8.40
2022-11-12T22:01:30.118Z,8.50
2022-11-12T22:03:58.854Z,8.50
2022-11-12T22:06:29.784Z,8.40
2022-11-12T22:08:58.167Z,8.40
2022-11-12T22:11:26.633Z,8.40
2022-11-12T22:13:54.142Z,8.40
2022-11-12T22:16:24.702Z,8.40
2022-11-12T22:18:54.068Z,8.40
2022-11-12T22:21:26.792Z,8.50
2022-11-12T22:23:55.210Z,8.60
2022-11-12T22:26:25.363Z,8.70
2022-11-12T22:28:53.937Z,8.80
2022-11-12T22:31:29.375Z,8.90
2022-11-12T22:33:58.295Z,9.00
2022-11-12T22:36:27.419Z,9.00
2022-11-12T22:38:56.027Z,9.20
2022-11-12T22:41:31.413Z,9.30
2022-11-12T22:44:02.876Z,9.20
2022-11-12T22:46:34.881Z,9.20
2022-11-12T22:49:03.867Z,9.20
2022-11-12T22:51:32.782Z,9.20
2022-11-12T22:54:04.849Z,9.30
2022-11-12T22:56:35.302Z,9.30
2022-11-12T22:59:04.803Z,9.30
2022-11-12T23:01:34.384Z,9.20
2022-11-12T23:04:04.966Z,9.20
2022-11-12T23:06:32.522Z,9.10
2022-11-12T23:09:00.537Z,9.10
2022-11-12T23:11:28.092Z,9.20
2022-11-12T23:13:55.988Z,9.20
2022-11-12T23:16:25.804Z,9.10
2022-11-12T23:18:53.350Z,9.10
2022-11-12T23:21:26.602Z,9.00
2022-11-12T23:23:53.751Z,9.00
2022-11-12T23:26:23.183Z,9.00
2022-11-12T23:28:50.560Z,8.90
2022-11-12T23:31:22.914Z,8.80
2022-11-12T23:33:52.393Z,8.80
2022-11-12T23:36:20.397Z,8.70
2022-11-12T23:38:47.669Z,8.60
2022-11-12T23:41:17.177Z,8.50
2022-11-12T23:43:44.885Z,8.40
2022-11-12T23:46:12.713Z,8.30
2022-11-12T23:48:39.745Z,8.20
2022-11-12T23:51:10.070Z,8.10
2022-11-12T23:53:38.855Z,8.00
2022-11-12T23:56:07.906Z,7.90
2022-11-12T23:58:35.065Z,7.70
